Flight Track Log - Related Links

Times and Time Zones

All times are in EDT time to prevent confusion due to time zone crossing. See the EJM345 flight status page for this flight to view local times or setup timezone preferences in your user account.

Time Position Orientation Groundspeed Altitude Reporting Facility
EDT Latitude Longitude Course Direction KTS MPH feet Rate Location/Type
Sun 04:32:46 PM 48.9333 -54.6167 264° West 210 242 3,300  Level Gander Center
Sun 04:33:46 PM 48.9333 -54.7167 270° West 240 276 5,500 2,700 Climbing Gander Center
Sun 04:34:46 PM 48.9000 -54.8000 239° Southwest 250 288 8,700 3,350 Climbing Gander Center
Sun 04:35:46 PM 48.8833 -54.9167 258° West 270 311 12,200 3,400 Climbing Gander Center
Sun 04:36:46 PM 48.8667 -55.0333 258° West 290 334 15,500 3,100 Climbing Gander Center
Sun 04:37:46 PM 48.8333 -55.1667 249° West 310 357 18,400 3,050 Climbing Gander Center
Sun 04:38:46 PM 48.8000 -55.2833 247° West 310 357 21,600 2,450 Climbing Gander Center
Sun 04:39:46 PM 48.7833 -55.4167 259° West 320 368 23,300 1,500 Climbing Gander Center
Sun 04:40:46 PM 48.7500 -55.5500 249° West 340 391 24,600 1,250 Climbing Gander Center
Sun 04:41:46 PM 48.7167 -55.7000 251° West 360 414 25,800 1,500 Climbing Gander Center
Sun 04:42:46 PM 48.6833 -55.8333 249° West 370 426 27,600 1,850 Climbing Gander Center
Sun 04:43:46 PM 48.6667 -55.9833 261° West 370 426 29,500 2,000 Climbing Gander Center
Sun 04:44:46 PM 48.6167 -56.1500 246° West 360 414 31,600 1,850 Climbing Gander Center
Sun 04:45:46 PM 48.5833 -56.2833 249° West 350 403 33,200 1,400 Climbing Gander Center
Sun 04:46:46 PM 48.5667 -56.4000 258° West 330 380 34,400 1,150 Climbing Gander Center
Sun 04:47:46 PM 48.5333 -56.5333 249° West 330 380 35,500 950 Climbing Gander Center
Sun 04:48:46 PM 48.5000 -56.6667 249° West 330 380 36,300 800 Climbing Gander Center
Sun 04:49:46 PM 48.4833 -56.8000 259° West 330 380 37,100 650 Climbing Gander Center
Sun 04:50:46 PM 48.4500 -56.9167 247° West 330 380 37,600 584 Climbing Gander Center
Sun 04:52:20 PM 48.4000 -57.1500 252° West 340 391 38,600 545 Climbing Moncton Center
Sun 04:53:20 PM 48.3667 -57.2833 249° West 340 391 39,000 500 Climbing Moncton Center
Sun 04:54:20 PM 48.3333 -57.4167 249° West 340 391 39,600 500 Climbing Moncton Center
Sun 04:55:20 PM 48.3000 -57.5500 249° West 340 391 40,000 200 Climbing Moncton Center
Sun 04:56:20 PM 48.2667 -57.6833 249° West 340 391 40,000  Level Moncton Center
Sun 04:57:20 PM 48.2333 -57.8333 252° West 350 403 40,000  Level Moncton Center
Sun 04:58:20 PM 48.2000 -57.9667 249° West 360 414 40,000  Level Moncton Center
Sun 04:59:20 PM 48.1667 -58.1167 252° West 360 414 40,000  Level Moncton Center
Sun 05:00:20 PM 48.1333 -58.2500 250° West 360 414 40,000  Level Moncton Center
Sun 05:01:20 PM 48.1000 -58.3833 250° West 350 403 40,000  Level Moncton Center
Sun 05:02:20 PM 48.0667 -58.5333 252° West 350 403 40,000  Level Moncton Center
Sun 05:03:20 PM 48.0500 -58.6667 259° West 350 403 40,000  Level Moncton Center
Sun 05:04:20 PM 48.0000 -58.8167 244° Southwest 350 403 40,000  Level Moncton Center
Sun 05:05:20 PM 47.9667 -58.9500 250° West 350 403 40,000  Level Moncton Center
Sun 05:06:20 PM 47.9333 -59.0667 247° West 360 414 40,000  Level Moncton Center
Sun 05:07:20 PM 47.9000 -59.2333 253° West 360 414 40,000  Level Moncton Center
Sun 05:08:20 PM 47.8500 -59.3500 237° Southwest 360 414 40,000  Level Moncton Center
Sun 05:09:20 PM 47.8333 -59.4833 259° West 360 414 40,000  Level Moncton Center
Sun 05:10:20 PM 47.7833 -59.6333 244° Southwest 360 414 40,000  Level Moncton Center
Sun 05:11:20 PM 47.7500 -59.7667 250° West 360 414 40,000  Level Moncton Center
Sun 05:12:20 PM 47.7167 -59.9167 252° West 360 414 40,000  Level Moncton Center
Sun 05:13:20 PM 47.6833 -60.0667 252° West 370 426 40,000  Level Moncton Center
Sun 05:14:20 PM 47.6333 -60.2000 241° Southwest 370 426 40,000  Level Moncton Center
Sun 05:15:20 PM 47.6167 -60.3167 258° West 360 414 40,000  Level Moncton Center
Sun 05:16:20 PM 47.5667 -60.4833 246° West 360 414 40,000  Level Moncton Center
Sun 05:17:20 PM 47.5333 -60.6000 247° West 370 426 40,000  Level Moncton Center
Sun 05:18:20 PM 47.4833 -60.7500 244° Southwest 360 414 40,000  Level Moncton Center
Sun 05:19:20 PM 47.4667 -60.9000 261° West 370 426 40,000  Level Moncton Center
Sun 05:20:20 PM 47.4167 -61.0500 244° Southwest 370 426 40,000  Level Moncton Center
Sun 05:21:20 PM 47.3833 -61.1833 250° West 370 426 40,000  Level Moncton Center
Sun 05:22:46 PM 47.3333 -61.3833 250° West 370 426 40,000  Level Gander Center
Sun 05:23:46 PM 47.2833 -61.5333 244° Southwest 370 426 40,000  Level Gander Center
Sun 05:24:46 PM 47.2500 -61.6500 247° West 370 426 40,000  Level Gander Center
Sun 05:25:46 PM 47.2167 -61.8167 254° West 370 426 40,000  Level Gander Center
Sun 05:26:20 PM 47.1833 -61.8833 234° Southwest 370 426 40,000  Level Moncton Center
Sun 05:27:20 PM 47.1333 -62.0333 244° Southwest 370 426 40,000  Level Moncton Center
Sun 05:28:20 PM 47.1167 -62.1833 261° West 370 426 40,000  Level Moncton Center
Sun 05:29:20 PM 47.0667 -62.3000 238° Southwest 370 426 40,000  Level Moncton Center
Sun 05:30:20 PM 47.0333 -62.4500 252° West 370 426 40,000  Level Moncton Center
Sun 05:31:46 PM 46.9667 -62.6500 244° Southwest 360 414 40,000 -411 Level Gander Center
Sun 05:32:46 PM 46.9333 -62.7667 247° West 350 403 39,000 -1,000 Descending Gander Center
Sun 05:33:46 PM 46.9000 -62.9000 250° West 330 380 38,000 -638 Descending Gander Center
Sun 05:34:20 PM 46.8667 -62.9500 226° Southwest 330 380 38,000  Level Moncton Center
Sun 05:35:20 PM 46.8333 -63.1000 252° West 330 380 38,000  Level Moncton Center
Sun 05:36:20 PM 46.8000 -63.2167 247° West 340 391 38,000  Level Moncton Center
Sun 05:37:20 PM 46.7500 -63.3500 241° Southwest 340 391 38,000  Level Moncton Center
Sun 05:38:20 PM 46.7333 -63.4667 258° West 340 391 38,000  Level Moncton Center
Sun 05:39:20 PM 46.6833 -63.6000 241° Southwest 340 391 38,000  Level Moncton Center
Sun 05:40:20 PM 46.6500 -63.7167 247° West 340 391 38,000  Level Moncton Center
Sun 05:41:46 PM 46.6000 -63.9000 248° West 340 391 38,000  Level Gander Center
Sun 05:42:20 PM 46.5833 -63.9833 254° West 340 391 38,000  Level Moncton Center
Sun 05:43:20 PM 46.5333 -64.1000 238° Southwest 340 391 38,000  Level Moncton Center
Sun 05:44:20 PM 46.5000 -64.2333 250° West 340 391 38,000  Level Moncton Center
Sun 05:45:20 PM 46.4667 -64.3500 248° West 340 391 38,000  Level Moncton Center
Sun 05:46:20 PM 46.4167 -64.4667 238° Southwest 340 391 38,000  Level Moncton Center
Sun 05:47:20 PM 46.3833 -64.5833 248° West 340 391 38,000  Level Moncton Center
Sun 05:48:20 PM 46.3500 -64.7167 250° West 340 391 38,000  Level Moncton Center
Sun 05:49:20 PM 46.3000 -64.8333 238° Southwest 340 391 38,000  Level Moncton Center
Sun 05:50:20 PM 46.2667 -64.9833 252° West 340 391 38,000  Level Moncton Center
Sun 05:51:20 PM 46.2333 -65.1000 248° West 340 391 38,000  Level Moncton Center
Sun 05:52:20 PM 46.1667 -65.2167 230° Southwest 340 391 38,000  Level Moncton Center
Sun 05:53:20 PM 46.1333 -65.3333 248° West 340 391 38,000  Level Moncton Center
Sun 05:54:20 PM 46.1000 -65.4833 252° West 350 403 38,000  Level Moncton Center
Sun 05:55:20 PM 46.0500 -65.6000 238° Southwest 350 403 38,000  Level Moncton Center
Sun 05:56:20 PM 46.0167 -65.7167 248° West 350 403 38,000  Level Moncton Center
Sun 05:57:20 PM 45.9667 -65.8333 238° Southwest 350 403 38,000  Level Moncton Center
Sun 05:58:20 PM 45.9333 -65.9667 250° West 350 403 38,000  Level Moncton Center
Sun 05:59:20 PM 45.9000 -66.1000 250° West 350 403 38,000  Level Moncton Center
Sun 06:00:20 PM 45.8500 -66.2167 238° Southwest 350 403 38,000  Level Moncton Center
Sun 06:01:20 PM 45.8167 -66.3667 252° West 350 403 38,000  Level Moncton Center
Sun 06:02:20 PM 45.7500 -66.4833 231° Southwest 350 403 38,000  Level Moncton Center
Sun 06:03:20 PM 45.7167 -66.6000 248° West 350 403 38,000  Level Moncton Center
Sun 06:04:20 PM 45.6833 -66.7500 252° West 350 403 38,000  Level Moncton Center
Sun 06:05:20 PM 45.6333 -66.8667 239° Southwest 350 403 38,000  Level Moncton Center
Sun 06:06:20 PM 45.5833 -66.9833 239° Southwest 350 403 38,000  Level Moncton Center
Sun 06:07:20 PM 45.5500 -67.1000 248° West 360 414 38,000  Level Moncton Center
Sun 06:08:20 PM 45.4833 -67.2333 235° Southwest 360 414 38,000  Level Moncton Center
Sun 06:09:20 PM 45.4500 -67.3500 248° West 360 414 38,000  Level Moncton Center
Sun 06:10:20 PM 45.4000 -67.5000 245° Southwest 360 414 38,000  Level Moncton Center
Sun 06:11:20 PM 45.3500 -67.6167 239° Southwest 360 414 38,000  Level Moncton Center
Sun 06:12:10 PM 45.3297 -67.7067 252° West 360 414 38,000  Level Boston Center
Sun 06:13:13 PM 45.2825 -67.8328 242° Southwest 361 415 38,000  Level Boston Center
Sun 06:14:17 PM 45.2347 -67.9553 241° Southwest 361 415 38,000  Level Boston Center
Sun 06:15:17 PM 45.1775 -68.1056 242° Southwest 361 415 38,000  Level Boston Center
Sun 06:16:21 PM 45.1289 -68.2311 241° Southwest 361 415 38,000  Level Boston Center
Sun 06:17:21 PM 45.0803 -68.3564 241° Southwest 361 415 38,000  Level Boston Center
Sun 06:18:25 PM 45.0317 -68.4806 241° Southwest 361 415 38,000  Level Boston Center
Sun 06:19:25 PM 44.9836 -68.6031 241° Southwest 360 414 38,000  Level Boston Center
Sun 06:20:29 PM 44.9358 -68.7267 241° Southwest 360 414 38,000  Level Boston Center
Sun 06:21:30 PM 44.8869 -68.8492 241° Southwest 358 412 38,000  Level Boston Center
Sun 06:22:34 PM 44.8281 -68.9961 241° Southwest 358 412 38,000  Level Boston Center
Sun 06:23:34 PM 44.7792 -69.1194 241° Southwest 358 412 38,000  Level Boston Center
Sun 06:24:39 PM 44.7292 -69.2417 240° Southwest 358 412 38,000  Level Boston Center
Sun 06:25:39 PM 44.6794 -69.3653 241° Southwest 357 411 38,000  Level Boston Center
Sun 06:26:43 PM 44.6294 -69.4889 240° Southwest 357 411 38,000  Level Boston Center
Sun 06:27:43 PM 44.5803 -69.6117 241° Southwest 357 411 38,000  Level Boston Center
Sun 06:28:47 PM 44.5303 -69.7336 240° Southwest 357 411 38,000  Level Boston Center
Sun 06:29:47 PM 44.4819 -69.8542 241° Southwest 357 411 38,000  Level Boston Center
Sun 06:30:51 PM 44.4219 -69.9997 240° Southwest 357 411 38,000  Level Boston Center
Sun 06:31:52 PM 44.3731 -70.1197 240° Southwest 356 410 38,000  Level Boston Center
Sun 06:32:56 PM 44.3228 -70.2403 240° Southwest 356 410 38,000  Level Boston Center
Sun 06:33:57 PM 44.2731 -70.3589 240° Southwest 355 409 38,000  Level Boston Center
Sun 06:34:58 PM 44.2228 -70.4792 240° Southwest 356 410 38,000  Level Boston Center
Sun 06:36:01 PM 44.1719 -70.5992 239° Southwest 356 410 38,000  Level Boston Center
Sun 06:37:03 PM 44.1217 -70.7197 240° Southwest 357 411 38,000  Level Boston Center
Sun 06:38:06 PM 44.0608 -70.8650 240° Southwest 358 412 38,000  Level Boston Center
Sun 06:39:07 PM 44.0097 -70.9844 239° Southwest 358 412 38,000  Level Boston Center
Sun 06:40:10 PM 43.9586 -71.1039 239° Southwest 359 413 38,000  Level Boston Center
Sun 06:41:14 PM 43.9081 -71.2233 240° Southwest 359 413 38,000 -145 Level Boston Center
Sun 06:42:14 PM 43.8558 -71.3422 239° Southwest 359 413 37,700 -968 Descending Boston Center
Sun 06:43:18 PM 43.8031 -71.4636 239° Southwest 364 419 36,000 -1,306 Descending Boston Center
Sun 06:44:18 PM 43.7494 -71.5858 239° Southwest 366 421 35,000 -488 Descending Boston Center
Sun 06:45:21 PM 43.6875 -71.7283 239° Southwest 363 418 35,000  Level Boston Center
Sun 06:46:23 PM 43.6336 -71.8506 239° Southwest 366 421 35,000  Level Boston Center
Sun 06:47:24 PM 43.5781 -71.9747 238° Southwest 377 434 35,000  Level Boston Center
Sun 06:48:27 PM 43.5242 -72.0989 239° Southwest 378 435 35,000  Level Boston Center
Sun 06:49:28 PM 43.4686 -72.2222 238° Southwest 378 435 35,000  Level Boston Center
Sun 06:50:32 PM 43.4139 -72.3475 239° Southwest 382 440 35,000  Level Boston Center
Sun 06:51:32 PM 43.3475 -72.4944 238° Southwest 381 438 35,000 -484 Level Boston Center
Sun 06:52:36 PM 43.2919 -72.6181 238° Southwest 381 438 34,000 -1,452 Descending Boston Center
Sun 06:53:36 PM 43.2364 -72.7419 238° Southwest 383 441 32,000 -1,951 Descending Boston Center
Sun 06:54:39 PM 43.1803 -72.8631 238° Southwest 382 440 30,000 -2,081 Descending Boston Center
Sun 06:55:40 PM 43.1178 -73.0017 238° Southwest 382 440 27,700 -2,032 Descending Boston Center
Sun 06:56:43 PM 43.0667 -73.1144 238° Southwest 392 451 25,800 -2,129 Descending Boston Center
Sun 06:57:44 PM 42.9964 -73.2678 238° Southwest 395 455 23,300 -2,177 Descending Boston Center
Sun 06:58:47 PM 42.9378 -73.3925 237° Southwest 395 455 21,300 -2,081 Descending Boston Center
Sun 06:59:48 PM 42.8742 -73.5308 238° Southwest 394 453 19,000 -1,967 Descending Boston Center
Sun 07:00:49 PM 42.8183 -73.6511 238° Southwest 381 438 17,300 -1,548 Descending Boston Center
Sun 07:01:52 PM 42.7639 -73.7683 238° Southwest 371 427 15,800 -1,597 Descending Boston Center
Sun 07:02:53 PM 42.6736 -73.8572 216° Southwest 358 412 14,000 -885 Descending Boston Center
Sun 07:03:54 PM 42.5892 -73.9211 209° Southwest 350 403 14,000  Level Boston Center
Sun 07:04:58 PM 42.5042 -73.9844 209° Southwest 350 403 14,000  Level Boston Center
Sun 07:05:59 PM 42.4117 -74.0525 209° Southwest 350 403 14,000  Level Boston Center
Sun 07:07:00 PM 42.3261 -74.1150 208° Southwest 350 403 14,000  Level Boston Center
Sun 07:08:03 PM 42.2342 -74.1833 209° Southwest 350 403 14,000  Level Boston Center
Sun 07:09:04 PM 42.1472 -74.2458 208° Southwest 351 404 14,000  Level Boston Center
Sun 07:10:04 PM 42.0617 -74.3100 209° Southwest 352 405 14,000  Level Boston Center
Sun 07:11:08 PM 41.9692 -74.3772 208° Southwest 352 405 14,000 -768 Level Boston Center
Sun 07:12:09 PM 41.8886 -74.4358 208° Southwest 333 383 12,400 -1,597 Descending Boston Center
Sun 07:13:12 PM 41.8114 -74.4908 208° Southwest 301 346 10,700 -1,597 Descending Boston Center
Sun 07:14:13 PM 41.7361 -74.5308 202° Southwest 295 339 9,100 -1,525 Descending Boston Center
Sun 07:15:14 PM 41.6586 -74.5442 187° South 287 330 7,600 -1,033 Descending Boston Center
Sun 07:16:15 PM 41.5781 -74.5614 189° South 278 320 7,000 -672 Descending Boston Center
Sun 07:17:19 PM 41.5019 -74.5758 188° South 277 319 6,200 -480 Descending Boston Center
Sun 07:18:20 PM 41.4206 -74.5917 188° South 277 319 6,000 -98 Descending Boston Center
Sun 07:19:22 PM 41.3464 -74.6172 195° South 277 319 6,000  Level Boston Center
Sun 07:20:23 PM 41.2675 -74.6483 197° South 277 319 6,000 -455 Level Boston Center
Sun 07:21:47 PM 41.1667 -74.6667 188° South 281 323 4,900 -833 Descending New York TRACON
Sun 07:22:47 PM 41.1333 -74.5833 118° Southeast 276 318 4,000 -850 Descending New York TRACON
Sun 07:23:47 PM 41.1333 -74.4833 90° East 274 315 3,200 -500 Descending New York TRACON
Sun 07:24:47 PM 41.1333 -74.3833 90° East 269 310 3,000 -100 Descending New York TRACON
Sun 07:25:47 PM 41.1333 -74.3000 90° East 269 310 3,000  Level New York TRACON
Sun 07:26:47 PM 41.1000 -74.2167 118° Southeast 229 264 3,000 -333 Level New York TRACON
Sun 07:28:47 PM 41.0333 -74.1000 155° Southeast 189 217 2,000 -300 Descending New York TRACON
Sun 07:30:47 PM 40.9500 -74.0500 168° South 178 205 1,800 -333 Descending New York TRACON
Sun 07:31:47 PM 40.9000 -74.0500 180° South 139 160 1,000 -800 Descending New York TRACON
Sun 07:33:00 PM 40.8500 -74.0500 168° South  Level FlightAware Approximate
Sun 07:40:00 PM 40.8501 -74.0608 168° South  Level Estimated

Login

Don't have an account? Register now (free) for customized features, flight alerts, and more!